Time;durP1;ratioP1;P1;durP2;ratioP2;P2;SDS_P1;SDS_P2;PMS_P1;PMS_P2;Temp;Humidity;BMP_temperature;BMP_pressure;BME280_temperature;BME280_humidity;BME280_pressure;Samples;Min_cycle;Max_cycle;Signal;HPM_P1;HPM_P2
2021/06/20 00:01:43;;;;;;;9.18;4.75;;;589.60;1996.80;;;;;;5071808;28;20021;-79
2021/06/20 00:04:08;;;;;;;8.32;5.22;;;589.50;2022.40;;;;;;5070322;28;20032;-80
2021/06/20 00:06:36;;;;;;;7.85;4.75;;;589.30;2048.00;;;;;;5071305;28;20107;-79
2021/06/20 00:09:08;;;;;;;6.93;4.22;;;589.30;2022.40;;;;;;5070125;28;20020;-79
2021/06/20 00:11:36;;;;;;;7.80;4.60;;;589.50;2022.40;;;;;;5068648;28;20052;-79
2021/06/20 00:14:03;;;;;;;8.30;4.78;;;589.30;2048.00;;;;;;5071421;28;20457;-85
2021/06/20 00:16:29;;;;;;;13.77;4.45;;;589.30;2073.60;;;;;;5071554;28;20591;-83
2021/06/20 00:18:55;;;;;;;8.88;4.40;;;589.20;2048.00;;;;;;5070340;28;20115;-79
2021/06/20 00:21:21;;;;;;;5.90;4.15;;;589.10;2073.60;;;;;;5071252;28;20108;-79
2021/06/20 00:23:48;;;;;;;8.43;5.28;;;589.10;2073.60;;;;;;5069907;28;20512;-79
2021/06/20 00:26:14;;;;;;;12.38;5.40;;;589.00;2099.20;;;;;;5069437;28;20078;-79
2021/06/20 00:28:40;;;;;;;11.35;5.30;;;588.90;2099.20;;;;;;5079821;28;20124;-80
2021/06/20 00:31:06;;;;;;;9.80;5.10;;;589.00;2099.20;;;;;;5070962;28;20100;-79
2021/06/20 00:33:32;;;;;;;9.90;4.72;;;588.90;2124.80;;;;;;5069553;28;20472;-80
2021/06/20 00:35:59;;;;;;;11.93;6.00;;;564.10;2124.80;;;;;;5071499;28;20425;-82
2021/06/20 00:38:25;;;;;;;10.65;5.40;;;564.10;2124.80;;;;;;5071210;28;20389;-81
2021/06/20 00:40:51;;;;;;;10.68;5.40;;;564.10;2150.40;;;;;;5070305;28;20085;-80
2021/06/20 00:43:18;;;;;;;7.18;5.25;;;564.10;2124.80;;;;;;5070254;28;20033;-79
2021/06/20 00:45:43;;;;;;;9.80;5.30;;;564.10;2124.80;;;;;;5070088;28;20032;-79
2021/06/20 00:48:09;;;;;;;9.82;5.93;;;564.10;2124.80;;;;;;5070252;28;20016;-78
2021/06/20 00:50:35;;;;;;;14.57;5.60;;;563.80;2150.40;;;;;;5070071;28;20043;-79
2021/06/20 00:53:02;;;;;;;11.13;5.53;;;563.90;2150.40;;;;;;5070062;28;20484;-87
2021/06/20 00:55:30;;;;;;;12.98;5.40;;;563.80;2150.40;;;;;;5070001;28;20131;-79
2021/06/20 00:57:59;;;;;;;7.70;4.93;;;563.80;2176.00;;;;;;5070340;28;20017;-81
2021/06/20 01:00:25;;;;;;;11.43;5.53;;;563.60;2176.00;;;;;;5070039;28;20028;-79
2021/06/20 01:02:50;;;;;;;10.65;6.10;;;563.60;2176.00;;;;;;5070176;28;20031;-79
2021/06/20 01:05:16;;;;;;;8.27;5.07;;;563.60;2176.00;;;;;;5069812;28;20081;-83
2021/06/20 01:07:43;;;;;;;9.73;5.45;;;563.40;2201.60;;;;;;5069592;28;20485;-81
2021/06/20 01:10:10;;;;;;;9.65;5.68;;;563.30;2227.20;;;;;;5068706;28;20441;-79
2021/06/20 01:12:37;;;;;;;9.43;5.63;;;563.20;2252.80;;;;;;5071267;28;20020;-79
2021/06/20 01:15:06;;;;;;;11.45;5.90;;;563.20;2227.20;;;;;;5071264;28;20025;-80
2021/06/20 01:17:33;;;;;;;12.15;6.53;;;563.20;2227.20;;;;;;5067819;28;20032;-79
2021/06/20 01:19:59;;;;;;;14.57;5.07;;;563.30;2227.20;;;;;;5069954;28;20020;-79
2021/06/20 01:22:32;;;;;;;7.18;4.80;;;563.20;2227.20;;;;;;5069469;28;20355;-79
2021/06/20 01:25:01;;;;;;;10.38;5.45;;;563.20;2227.20;;;;;;5067709;28;20481;-79
2021/06/20 01:27:34;;;;;;;8.02;5.28;;;563.30;2201.60;;;;;;5069753;28;20465;-79
2021/06/20 01:30:03;;;;;;;7.90;4.95;;;563.30;2227.20;;;;;;5068913;28;20017;-88
2021/06/20 01:32:30;;;;;;;13.35;4.63;;;538.50;2201.60;;;;;;5070996;28;20104;-79
2021/06/20 01:34:56;;;;;;;6.40;4.40;;;563.20;2227.20;;;;;;5068338;28;20017;-79
2021/06/20 01:37:22;;;;;;;10.40;4.30;;;538.50;2201.60;;;;;;5070849;28;20016;-79
2021/06/20 01:39:48;;;;;;;6.75;4.25;;;538.50;2201.60;;;;;;5069563;28;20031;-80
2021/06/20 01:42:15;;;;;;;5.55;3.90;;;563.20;2227.20;;;;;;5069860;28;20024;-79
2021/06/20 01:44:58;;;;;;;8.40;3.90;;;563.20;2227.20;;;;;;5073139;28;20075;-78
2021/06/20 01:47:26;;;;;;;8.73;3.50;;;563.20;2201.60;;;;;;5071614;28;20098;-79
2021/06/20 01:49:53;;;;;;;7.18;3.70;;;563.20;2227.20;;;;;;5073435;28;20028;-79
2021/06/20 01:52:20;;;;;;;7.18;4.32;;;538.50;2201.60;;;;;;5072944;28;20361;-80
2021/06/20 01:54:52;;;;;;;5.57;3.72;;;538.30;2201.60;;;;;;5073804;28;20028;-84
2021/06/20 01:57:27;;;;;;;8.20;3.95;;;563.30;2201.60;;;;;;5073205;28;20021;-81
2021/06/20 01:59:54;;;;;;;7.95;4.10;;;563.50;2176.00;;;;;;5074432;28;20376;-79
2021/06/20 02:02:21;;;;;;;5.15;3.28;;;563.60;2150.40;;;;;;5074599;28;20023;-80
2021/06/20 02:04:47;;;;;;;9.57;3.25;;;563.70;2150.40;;;;;;5072757;28;20078;-80
2021/06/20 02:07:14;;;;;;;5.22;3.60;;;563.60;2176.00;;;;;;5072900;28;20070;-87
2021/06/20 02:09:40;;;;;;;5.40;3.58;;;563.50;2176.00;;;;;;5072769;28;20143;-88
2021/06/20 02:12:09;;;;;;;5.63;3.22;;;563.40;2176.00;;;;;;5072940;28;20488;-79
2021/06/20 02:14:36;;;;;;;9.73;3.45;;;563.40;2176.00;;;;;;5072561;28;20028;-79
2021/06/20 02:17:27;;;;;;;4.30;2.88;;;563.30;2201.60;;;;;;5074261;28;20322;-79
2021/06/20 02:19:55;;;;;;;8.30;3.47;;;563.30;2201.60;;;;;;5059654;28;20028;-79
2021/06/20 02:22:22;;;;;;;6.80;3.03;;;563.20;2201.60;;;;;;5073785;28;20029;-78
2021/06/20 02:24:48;;;;;;;6.88;2.83;;;563.20;2201.60;;;;;;5072453;28;20494;-79
2021/06/20 02:27:15;;;;;;;13.32;2.67;;;563.30;2176.00;;;;;;5072394;28;20522;-88
2021/06/20 02:29:42;;;;;;;5.25;3.25;;;563.30;2176.00;;;;;;5073960;28;20345;-79
2021/06/20 02:32:09;;;;;;;5.60;3.53;;;563.20;2176.00;;;;;;5072595;28;20077;-80
2021/06/20 02:34:37;;;;;;;8.98;3.72;;;563.20;2176.00;;;;;;5072362;28;20020;-79
2021/06/20 02:37:07;;;;;;;7.70;3.40;;;563.20;2176.00;;;;;;5073825;28;20553;-79
2021/06/20 02:39:33;;;;;;;6.07;3.88;;;538.50;2150.40;;;;;;5073507;28;20173;-80
2021/06/20 02:42:00;;;;;;;9.88;3.42;;;538.50;2176.00;;;;;;5073827;28;20023;-80
2021/06/20 02:44:26;;;;;;;9.13;3.25;;;538.50;2176.00;;;;;;5073362;28;20041;-79
2021/06/20 02:46:52;;;;;;;5.15;2.65;;;538.40;2176.00;;;;;;5073740;28;20485;-84
2021/06/20 02:49:18;;;;;;;5.93;3.33;;;538.50;2176.00;;;;;;5070949;28;20023;-80
2021/06/20 02:51:44;;;;;;;8.68;3.53;;;538.50;2176.00;;;;;;5072464;28;20020;-81
2021/06/20 02:54:13;;;;;;;9.10;3.25;;;538.50;2150.40;;;;;;5072852;28;20031;-80
2021/06/20 02:56:39;;;;;;;11.90;3.60;;;538.50;2150.40;;;;;;5069313;28;20021;-80
2021/06/20 02:59:05;;;;;;;6.63;3.22;;;538.40;2150.40;;;;;;5072139;28;20020;-79
2021/06/20 03:01:31;;;;;;;10.48;2.90;;;538.30;2176.00;;;;;;5071679;28;20384;-80
2021/06/20 03:03:57;;;;;;;6.70;3.30;;;538.30;2176.00;;;;;;5073304;28;20017;-79
2021/06/20 03:06:23;;;;;;;11.45;3.33;;;538.30;2150.40;;;;;;5071433;28;20036;-87
2021/06/20 03:08:49;;;;;;;11.60;3.75;;;538.30;2150.40;;;;;;5072021;28;20112;-82
2021/06/20 03:11:15;;;;;;;3.90;2.63;;;538.20;2176.00;;;;;;5072152;28;20020;-79
2021/06/20 03:13:41;;;;;;;7.38;3.72;;;538.10;2176.00;;;;;;5073188;28;20025;-88
2021/06/20 03:16:07;;;;;;;8.07;3.03;;;538.00;2201.60;;;;;;5071854;28;20066;-88
2021/06/20 03:18:33;;;;;;;10.18;3.47;;;537.90;2201.60;;;;;;5073048;28;20022;-80
2021/06/20 03:20:59;;;;;;;8.55;2.97;;;537.90;2227.20;;;;;;5071588;28;20425;-81
2021/06/20 03:23:25;;;;;;;12.90;3.45;;;537.90;2201.60;;;;;;5071292;28;20527;-81
2021/06/20 03:25:50;;;;;;;6.22;2.83;;;537.80;2227.20;;;;;;5071558;28;20067;-80
2021/06/20 03:28:16;;;;;;;8.43;2.97;;;537.60;2227.20;;;;;;5072479;28;20061;-86
2021/06/20 03:30:42;;;;;;;5.80;2.90;;;537.70;2227.20;;;;;;5071635;28;20115;-86
2021/06/20 03:33:08;;;;;;;8.02;3.42;;;537.80;2201.60;;;;;;5072293;28;20023;-80
2021/06/20 03:35:34;;;;;;;7.65;3.13;;;537.80;2201.60;;;;;;5073036;28;20021;-79
2021/06/20 03:38:00;;;;;;;7.90;3.28;;;537.90;2201.60;;;;;;5071225;28;20020;-79
2021/06/20 03:40:26;;;;;;;5.35;3.08;;;537.90;2201.60;;;;;;5071459;28;20028;-79
2021/06/20 03:42:52;;;;;;;6.50;3.33;;;537.90;2201.60;;;;;;5072287;28;20013;-87
2021/06/20 03:45:18;;;;;;;4.55;2.95;;;537.80;2227.20;;;;;;5072629;28;20037;-88
2021/06/20 03:47:44;;;;;;;5.82;3.45;;;537.70;2227.20;;;;;;5072110;28;20016;-79
2021/06/20 03:50:10;;;;;;;7.22;3.05;;;537.80;2227.20;;;;;;5071111;28;20059;-83
2021/06/20 03:52:39;;;;;;;4.88;3.20;;;537.90;2227.20;;;;;;5071053;28;20032;-80
2021/06/20 03:55:07;;;;;;;6.82;3.05;;;538.10;2201.60;;;;;;5070814;28;20024;-79
2021/06/20 03:57:33;;;;;;;5.43;3.22;;;538.20;2201.60;;;;;;5070997;28;20020;-86
2021/06/20 03:59:59;;;;;;;6.53;3.63;;;538.30;2176.00;;;;;;5070694;28;20084;-87
2021/06/20 04:02:25;;;;;;;8.52;3.13;;;538.30;2176.00;;;;;;5070991;28;20044;-79
2021/06/20 04:04:50;;;;;;;7.93;3.10;;;538.40;2176.00;;;;;;5070887;28;20028;-79
2021/06/20 04:07:17;;;;;;;5.15;3.35;;;538.40;2176.00;;;;;;5070730;28;20025;-79
2021/06/20 04:09:43;;;;;;;6.95;3.30;;;538.50;2176.00;;;;;;5070606;28;20441;-86
2021/06/20 04:12:13;;;;;;;5.30;3.25;;;563.20;2201.60;;;;;;5071033;28;20020;-79
2021/06/20 04:14:41;;;;;;;5.78;3.10;;;563.20;2201.60;;;;;;5072084;28;20061;-80
2021/06/20 04:17:07;;;;;;;4.30;2.95;;;563.20;2201.60;;;;;;5071133;28;20028;-86
2021/06/20 04:19:33;;;;;;;7.18;2.92;;;563.30;2201.60;;;;;;5071006;28;20030;-87
2021/06/20 04:22:00;;;;;;;5.10;2.83;;;563.50;2201.60;;;;;;5070499;28;20103;-79
2021/06/20 04:24:26;;;;;;;3.97;2.88;;;563.60;2201.60;;;;;;5070559;28;20401;-80
2021/06/20 04:26:52;;;;;;;4.30;2.25;;;563.50;2201.60;;;;;;5053820;28;20048;-80
2021/06/20 04:29:18;;;;;;;6.30;2.55;;;563.60;2201.60;;;;;;5070917;28;20485;-80
2021/06/20 04:31:43;;;;;;;6.15;2.75;;;563.50;2227.20;;;;;;5071920;28;20021;-82
2021/06/20 04:34:09;;;;;;;4.35;2.75;;;563.60;2201.60;;;;;;5070693;28;20017;-80
2021/06/20 04:36:35;;;;;;;4.68;1.90;;;563.60;2201.60;;;;;;5070458;28;20029;-81
2021/06/20 04:39:01;;;;;;;4.70;2.50;;;563.30;2252.80;;;;;;5070550;28;20090;-89
2021/06/20 04:41:26;;;;;;;5.15;2.13;;;563.20;2252.80;;;;;;5070684;28;20070;-80
2021/06/20 04:46:44;;;;;;;3.75;2.40;;;563.50;2227.20;;;;;;5071916;28;20074;-79
2021/06/20 04:49:11;;;;;;;3.50;2.30;;;563.60;2227.20;;;;;;5069368;28;20115;-85
2021/06/20 04:51:39;;;;;;;7.25;2.20;;;563.50;2227.20;;;;;;5070292;28;20043;-87
2021/06/20 04:54:07;;;;;;;3.00;2.08;;;563.50;2252.80;;;;;;5069185;28;20036;-80
2021/06/20 04:56:33;;;;;;;3.50;2.30;;;563.50;2227.20;;;;;;5071881;28;20883;-84
2021/06/20 04:58:58;;;;;;;4.45;2.20;;;563.30;2278.40;;;;;;5070602;28;20107;-80
2021/06/20 05:01:25;;;;;;;3.03;2.25;;;538.50;2278.40;;;;;;5068470;28;20020;-80
2021/06/20 05:03:52;;;;;;;3.70;2.40;;;563.20;2278.40;;;;;;5070933;28;20051;-80
2021/06/20 05:06:18;;;;;;;4.30;2.35;;;563.20;2304.00;;;;;;5070012;28;20029;-84
2021/06/20 05:08:44;;;;;;;4.50;2.65;;;563.30;2278.40;;;;;;5070343;28;20116;-86
2021/06/20 05:11:09;;;;;;;4.35;2.40;;;563.30;2304.00;;;;;;5068146;28;20032;-79
2021/06/20 05:13:35;;;;;;;5.70;2.95;;;563.40;2304.00;;;;;;5071187;28;20469;-79
2021/06/20 05:16:01;;;;;;;4.57;2.65;;;563.50;2304.00;;;;;;5070068;28;20489;-80
2021/06/20 05:18:27;;;;;;;6.88;3.00;;;563.60;2304.00;;;;;;5073181;28;20016;-79
2021/06/20 05:20:52;;;;;;;5.65;2.97;;;563.60;2278.40;;;;;;5073983;28;20020;-79
2021/06/20 05:23:20;;;;;;;5.13;2.30;;;563.50;2278.40;;;;;;5073490;28;20101;-80
2021/06/20 05:25:47;;;;;;;4.60;2.63;;;563.70;2278.40;;;;;;5071146;28;20043;-80
2021/06/20 05:28:12;;;;;;;3.60;2.50;;;563.70;2278.40;;;;;;5075020;28;20028;-89
2021/06/20 05:30:39;;;;;;;3.33;2.25;;;563.80;2252.80;;;;;;5075061;28;20028;-80
2021/06/20 05:33:05;;;;;;;3.50;2.30;;;563.90;2227.20;;;;;;5073529;28;20058;-79
2021/06/20 05:35:31;;;;;;;4.43;2.72;;;564.10;2252.80;;;;;;5073760;28;20059;-82
2021/06/20 05:37:57;;;;;;;6.85;2.85;;;588.90;2201.60;;;;;;5073615;28;20024;-79
2021/06/20 05:40:23;;;;;;;3.88;2.53;;;588.90;2201.60;;;;;;5073220;28;20602;-77
2021/06/20 05:42:48;;;;;;;4.55;2.92;;;588.90;2201.60;;;;;;5074762;28;20024;-78
2021/06/20 05:45:15;;;;;;;3.75;2.38;;;588.90;2201.60;;;;;;5073048;28;20082;-77
2021/06/20 05:47:40;;;;;;;9.25;3.20;;;589.10;2201.60;;;;;;5074520;28;20023;-78
2021/06/20 05:50:07;;;;;;;7.05;2.90;;;589.30;2201.60;;;;;;5071503;28;20016;-77
2021/06/20 05:52:32;;;;;;;3.72;2.55;;;589.10;2201.60;;;;;;5072973;28;20032;-76
2021/06/20 05:54:58;;;;;;;4.72;2.25;;;589.30;2201.60;;;;;;5074170;28;20107;-76
2021/06/20 05:57:24;;;;;;;3.10;2.28;;;589.40;2176.00;;;;;;5073334;28;20032;-78
2021/06/20 05:59:50;;;;;;;3.75;2.58;;;589.50;2150.40;;;;;;5074637;28;20028;-78
2021/06/20 06:02:16;;;;;;;3.95;2.53;;;589.50;2150.40;;;;;;5073363;28;20067;-76
2021/06/20 06:04:42;;;;;;;3.90;2.30;;;589.60;2150.40;;;;;;5074334;28;20047;-79
2021/06/20 06:07:08;;;;;;;3.70;2.45;;;589.40;2176.00;;;;;;5073094;28;20020;-76
2021/06/20 06:09:35;;;;;;;3.35;2.40;;;589.70;2150.40;;;;;;5074488;28;20028;-76
2021/06/20 06:12:06;;;;;;;6.07;3.17;;;614.40;2150.40;;;;;;5074733;28;20027;-76
2021/06/20 06:14:32;;;;;;;6.47;2.45;;;614.40;2124.80;;;;;;5072819;28;20082;-74
2021/06/20 06:16:57;;;;;;;4.72;2.65;;;614.50;2099.20;;;;;;5074430;28;20021;-75
2021/06/20 06:19:23;;;;;;;4.25;2.85;;;614.60;2099.20;;;;;;5074222;28;20472;-75
2021/06/20 06:21:49;;;;;;;6.90;2.90;;;614.70;2073.60;;;;;;5073714;28;20465;-79
2021/06/20 06:24:15;;;;;;;11.05;3.30;;;614.70;2073.60;;;;;;5072519;28;20056;-75
2021/06/20 06:26:41;;;;;;;4.75;2.92;;;614.80;2073.60;;;;;;5073669;28;20476;-75
2021/06/20 06:29:07;;;;;;;7.13;4.38;;;614.90;2073.60;;;;;;5073353;28;20469;-75
2021/06/20 06:31:36;;;;;;;6.35;3.33;;;615.00;2048.00;;;;;;5073381;28;20028;-75
2021/06/20 06:34:02;;;;;;;4.53;2.65;;;615.20;2048.00;;;;;;5073607;28;20012;-75
2021/06/20 06:36:28;;;;;;;4.35;2.97;;;615.20;2022.40;;;;;;5073739;28;20079;-79
2021/06/20 06:38:54;;;;;;;6.32;2.70;;;615.30;2022.40;;;;;;5073551;28;20485;-78
2021/06/20 06:41:20;;;;;;;3.67;2.50;;;615.30;1996.80;;;;;;5073688;28;20381;-79
2021/06/20 06:43:46;;;;;;;7.78;2.90;;;640.00;1996.80;;;;;;5073688;28;20033;-78
2021/06/20 06:46:12;;;;;;;6.57;3.30;;;640.00;1996.80;;;;;;5073523;28;20054;-74
2021/06/20 06:48:38;;;;;;;6.07;2.88;;;640.00;1996.80;;;;;;5073436;28;20524;-76
2021/06/20 06:51:04;;;;;;;13.65;3.22;;;640.20;1971.20;;;;;;5073534;28;20031;-76
2021/06/20 06:53:30;;;;;;;4.25;2.60;;;640.30;1996.80;;;;;;5073257;28;20025;-76
2021/06/20 06:55:57;;;;;;;4.70;2.90;;;640.40;1945.60;;;;;;5073369;28;20078;-76
2021/06/20 06:58:22;;;;;;;8.20;3.00;;;640.40;1945.60;;;;;;5073438;28;20027;-77
2021/06/20 07:00:48;;;;;;;3.25;2.47;;;640.60;1945.60;;;;;;5073162;28;20020;-77
2021/06/20 07:03:14;;;;;;;3.92;2.80;;;640.60;1920.00;;;;;;5073332;28;20060;-78
2021/06/20 07:05:40;;;;;;;5.75;3.00;;;640.70;1945.60;;;;;;5072925;28;20036;-77
2021/06/20 07:08:06;;;;;;;4.43;2.90;;;640.80;1920.00;;;;;;5072558;28;20021;-78
2021/06/20 07:10:32;;;;;;;6.82;2.90;;;640.90;1920.00;;;;;;5071812;28;20108;-79
2021/06/20 07:12:58;;;;;;;4.00;3.28;;;665.70;1945.60;;;;;;5072079;28;20096;-77
2021/06/20 07:15:25;;;;;;;3.88;2.90;;;665.80;1868.80;;;;;;5072839;28;20016;-75
2021/06/20 07:17:51;;;;;;;6.50;3.15;;;665.90;1894.40;;;;;;5071529;28;20465;-78
2021/06/20 07:20:17;;;;;;;3.60;2.92;;;665.90;1894.40;;;;;;5073216;28;20028;-75
2021/06/20 07:22:45;;;;;;;4.40;2.90;;;666.00;1868.80;;;;;;5072189;28;20473;-76
2021/06/20 07:25:13;;;;;;;5.75;3.22;;;666.10;1868.80;;;;;;5072414;28;20389;-76
2021/06/20 07:27:39;;;;;;;5.45;2.67;;;666.20;1843.20;;;;;;5072608;28;20021;-76
2021/06/20 07:30:08;;;;;;;5.10;3.20;;;666.30;1843.20;;;;;;5072493;28;20473;-77
2021/06/20 07:32:34;;;;;;;4.05;2.83;;;666.30;1843.20;;;;;;5072437;28;20055;-77
2021/06/20 07:35:00;;;;;;;6.10;3.25;;;666.50;1817.60;;;;;;5072531;28;20047;-77
2021/06/20 07:37:26;;;;;;;6.38;2.85;;;691.20;1792.00;;;;;;5072486;28;20036;-76
2021/06/20 07:39:51;;;;;;;4.85;3.08;;;691.30;1792.00;;;;;;5072445;28;20016;-76
2021/06/20 07:42:17;;;;;;;5.15;3.15;;;691.40;1792.00;;;;;;5059445;28;20104;-76
2021/06/20 07:44:43;;;;;;;3.92;3.10;;;691.60;1792.00;;;;;;5071430;28;20036;-76
2021/06/20 07:47:08;;;;;;;4.82;2.92;;;691.80;1766.40;;;;;;5072169;28;20036;-78
2021/06/20 07:49:34;;;;;;;4.38;2.80;;;691.80;1766.40;;;;;;5072032;28;20025;-75
2021/06/20 07:52:00;;;;;;;5.20;2.88;;;691.90;1740.80;;;;;;5071155;28;20028;-75
2021/06/20 07:54:26;;;;;;;5.53;3.10;;;691.80;1766.40;;;;;;5072476;28;20024;-75
2021/06/20 07:56:51;;;;;;;6.15;2.97;;;692.00;1740.80;;;;;;5071272;28;20020;-79
2021/06/20 07:59:18;;;;;;;4.63;3.05;;;692.10;1740.80;;;;;;5071989;28;20386;-75
2021/06/20 08:01:44;;;;;;;6.88;3.33;;;692.10;1715.20;;;;;;5072210;28;20488;-75
2021/06/20 08:04:09;;;;;;;7.20;4.15;;;716.90;1689.60;;;;;;5071888;28;20025;-75
2021/06/20 08:06:35;;;;;;;4.78;3.58;;;717.00;1664.00;;;;;;5072143;28;20043;-75
2021/06/20 08:09:01;;;;;;;3.90;3.08;;;717.20;1664.00;;;;;;5071955;28;20043;-75
2021/06/20 08:11:27;;;;;;;4.60;2.90;;;717.30;1689.60;;;;;;5071885;28;20056;-75
2021/06/20 08:13:57;;;;;;;6.35;2.78;;;717.40;1664.00;;;;;;5071872;28;20024;-75
2021/06/20 08:16:22;;;;;;;5.97;3.10;;;717.40;1664.00;;;;;;5071845;28;20032;-75
2021/06/20 08:18:48;;;;;;;7.65;3.90;;;717.70;1664.00;;;;;;5070853;28;20024;-78
2021/06/20 08:21:14;;;;;;;3.65;2.83;;;717.70;1612.80;;;;;;5071681;28;20427;-75
2021/06/20 08:23:40;;;;;;;6.15;3.05;;;742.40;1664.00;;;;;;5071918;28;20440;-78
2021/06/20 08:26:07;;;;;;;4.28;2.50;;;717.60;1638.40;;;;;;5071500;28;20039;-76
2021/06/20 08:28:33;;;;;;;6.13;2.58;;;742.40;1612.80;;;;;;5070762;28;20039;-76
2021/06/20 08:31:00;;;;;;;4.13;2.88;;;717.70;1561.60;;;;;;5071663;28;20024;-78
2021/06/20 08:33:26;;;;;;;8.23;2.90;;;717.70;1587.20;;;;;;5072173;28;20025;-75
2021/06/20 08:35:51;;;;;;;5.07;2.70;;;742.40;1664.00;;;;;;5071690;28;20025;-76
2021/06/20 08:38:17;;;;;;;9.68;3.33;;;742.50;1587.20;;;;;;5071515;28;20033;-77
2021/06/20 08:40:43;;;;;;;3.85;2.63;;;742.50;1587.20;;;;;;5071752;28;20032;-76
2021/06/20 08:43:10;;;;;;;4.65;2.97;;;717.70;1587.20;;;;;;5071104;28;20028;-75
2021/06/20 08:45:36;;;;;;;4.43;2.85;;;742.40;1612.80;;;;;;5071523;28;20408;-76
2021/06/20 08:48:03;;;;;;;4.38;2.45;;;742.60;1612.80;;;;;;5071386;28;20021;-76
2021/06/20 08:50:28;;;;;;;3.53;2.60;;;742.80;1587.20;;;;;;5071054;28;20028;-78
2021/06/20 08:52:55;;;;;;;7.13;3.42;;;742.90;1561.60;;;;;;5071682;28;20039;-76
2021/06/20 08:55:22;;;;;;;3.22;2.55;;;742.90;1587.20;;;;;;5074530;28;20035;-74
2021/06/20 08:57:48;;;;;;;6.00;2.55;;;743.00;1612.80;;;;;;5074265;28;20036;-75
2021/06/20 09:00:17;;;;;;;4.60;2.65;;;743.20;1536.00;;;;;;5074534;28;20020;-75
2021/06/20 09:02:43;;;;;;;4.97;2.47;;;743.10;1510.40;;;;;;5072272;28;20024;-75
2021/06/20 09:05:13;;;;;;;3.70;2.92;;;743.00;1510.40;;;;;;5075301;28;20036;-76
2021/06/20 09:07:41;;;;;;;4.80;3.05;;;743.10;1536.00;;;;;;5075333;28;20054;-77
2021/06/20 09:10:18;;;;;;;6.47;2.90;;;743.20;1536.00;;;;;;5075236;28;20482;-76
2021/06/20 09:12:59;;;;;;;6.70;2.80;;;743.30;1561.60;;;;;;5075261;28;20028;-80
2021/06/20 09:15:30;;;;;;;4.80;2.85;;;768.00;1536.00;;;;;;5075292;28;20103;-78
2021/06/20 09:18:01;;;;;;;4.40;2.88;;;768.00;1510.40;;;;;;5075021;28;20052;-76
2021/06/20 09:20:41;;;;;;;10.45;3.60;;;743.30;1510.40;;;;;;5075299;28;20047;-75
2021/06/20 09:23:09;;;;;;;3.70;2.80;;;743.30;1536.00;;;;;;5070855;28;20036;-78
2021/06/20 09:25:36;;;;;;;7.32;3.25;;;768.10;1536.00;;;;;;5074917;28;20491;-77
2021/06/20 09:28:03;;;;;;;5.43;2.55;;;768.20;1459.20;;;;;;5074341;28;20044;-79
2021/06/20 09:30:31;;;;;;;5.85;3.15;;;768.10;1459.20;;;;;;5073996;28;20446;-76
2021/06/20 09:32:57;;;;;;;5.30;2.80;;;768.10;1459.20;;;;;;5074127;28;20483;-75
2021/06/20 09:35:23;;;;;;;3.83;2.67;;;743.30;1484.80;;;;;;5073811;28;20021;-79
2021/06/20 09:37:53;;;;;;;4.00;2.50;;;768.10;1510.40;;;;;;5072653;28;20024;-79
2021/06/20 09:40:19;;;;;;;3.72;2.80;;;768.40;1433.60;;;;;;5067885;28;20016;-79
2021/06/20 09:42:45;;;;;;;5.38;2.53;;;768.60;1484.80;;;;;;5074723;28;20085;-77
2021/06/20 09:45:11;;;;;;;3.28;2.40;;;768.60;1459.20;;;;;;5074592;28;20422;-76
2021/06/20 09:47:41;;;;;;;3.40;2.60;;;793.70;1433.60;;;;;;5074511;28;20028;-78
2021/06/20 09:50:10;;;;;;;4.60;2.65;;;793.80;1382.40;;;;;;5073644;28;20021;-78
2021/06/20 09:52:36;;;;;;;9.80;4.35;;;794.00;1408.00;;;;;;5074488;28;20128;-77
2021/06/20 09:55:13;;;;;;;5.07;2.88;;;794.10;1331.20;;;;;;5074833;28;20024;-78
2021/06/20 09:57:44;;;;;;;3.97;3.03;;;794.20;1280.00;;;;;;5074351;28;20017;-78
2021/06/20 10:00:12;;;;;;;5.07;2.85;;;794.10;1305.60;;;;;;5073481;28;20082;-77
2021/06/20 10:02:39;;;;;;;5.10;2.60;;;794.20;1305.60;;;;;;5073151;28;20024;-78
2021/06/20 10:05:09;;;;;;;3.90;2.88;;;794.00;1331.20;;;;;;5073157;28;20067;-77
2021/06/20 10:07:35;;;;;;;3.22;2.60;;;794.40;1305.60;;;;;;5074325;28;20032;-77
2021/06/20 10:10:04;;;;;;;4.90;2.47;;;794.30;1280.00;;;;;;5074180;28;20052;-76
2021/06/20 10:12:30;;;;;;;5.53;2.75;;;819.20;1305.60;;;;;;5074213;28;20056;-78
2021/06/20 10:14:58;;;;;;;4.85;3.33;;;819.30;1305.60;;;;;;5074011;28;20048;-78
2021/06/20 10:17:36;;;;;;;4.95;2.70;;;819.50;1254.40;;;;;;5073070;28;20028;-76
2021/06/20 10:20:12;;;;;;;5.43;2.55;;;819.60;1254.40;;;;;;5072775;28;20025;-79
2021/06/20 10:22:44;;;;;;;4.00;2.33;;;819.80;1254.40;;;;;;5073792;28;20038;-79
2021/06/20 10:25:22;;;;;;;3.38;2.45;;;820.00;1280.00;;;;;;5074102;28;20037;-79
2021/06/20 10:28:06;;;;;;;7.82;3.20;;;819.80;1228.80;;;;;;5074122;28;20403;-79
2021/06/20 10:30:34;;;;;;;11.85;3.38;;;819.90;1254.40;;;;;;5072857;28;20396;-81
2021/06/20 10:33:20;;;;;;;3.97;2.67;;;820.10;1228.80;;;;;;5073601;28;20020;-78
2021/06/20 10:36:09;;;;;;;5.78;2.63;;;820.10;1203.20;;;;;;5057768;28;20369;-78
2021/06/20 10:38:43;;;;;;;5.90;2.70;;;844.90;1203.20;;;;;;5074002;28;20025;-80
2021/06/20 10:41:26;;;;;;;3.40;2.30;;;844.90;1177.60;;;;;;5073764;28;20145;-80
2021/06/20 10:43:56;;;;;;;4.88;2.78;;;819.80;1177.60;;;;;;5072735;28;20265;-79
2021/06/20 10:46:22;;;;;;;6.43;5.00;;;844.90;1228.80;;;;;;5073753;28;20036;-79
2021/06/20 10:48:48;;;;;;;4.30;2.70;;;844.90;1177.60;;;;;;5073834;28;20020;-79
2021/06/20 10:51:22;;;;;;;5.20;2.65;;;845.00;1177.60;;;;;;5073349;28;20028;-79
2021/06/20 10:53:48;;;;;;;4.82;2.75;;;820.10;1228.80;;;;;;5073733;28;20472;-81
2021/06/20 10:56:26;;;;;;;3.75;2.63;;;819.70;1228.80;;;;;;5072242;28;20032;-79
2021/06/20 10:58:53;;;;;;;3.38;2.58;;;819.60;1228.80;;;;;;5073454;28;20541;-80
2021/06/20 11:01:22;;;;;;;6.40;2.90;;;819.80;1228.80;;;;;;5072351;28;20175;-78
2021/06/20 11:03:58;;;;;;;3.67;2.50;;;820.00;1228.80;;;;;;5073194;28;20024;-78
2021/06/20 11:06:25;;;;;;;3.63;2.88;;;819.70;1254.40;;;;;;5072936;28;20036;-77
2021/06/20 11:08:59;;;;;;;4.80;3.30;;;819.80;1254.40;;;;;;5073894;28;20031;-80
2021/06/20 11:11:31;;;;;;;3.30;2.55;;;820.10;1228.80;;;;;;5072999;28;20059;-77
2021/06/20 11:13:57;;;;;;;3.58;2.30;;;820.10;1203.20;;;;;;5073211;28;20035;-77
2021/06/20 11:16:37;;;;;;;3.17;2.30;;;820.10;1228.80;;;;;;5072865;28;20025;-79
2021/06/20 11:19:25;;;;;;;3.28;2.67;;;820.10;1254.40;;;;;;5072982;28;20024;-78
2021/06/20 11:22:01;;;;;;;3.45;2.40;;;820.10;1228.80;;;;;;5073159;28;20028;-77
2021/06/20 11:24:37;;;;;;;3.83;2.58;;;844.80;1228.80;;;;;;5072712;28;20076;-77
2021/06/20 11:27:20;;;;;;;5.40;2.17;;;819.80;1254.40;;;;;;5072970;28;20103;-77
2021/06/20 11:29:51;;;;;;;3.10;2.60;;;820.10;1280.00;;;;;;5071511;28;20388;-77
2021/06/20 11:32:18;;;;;;;3.60;2.58;;;844.80;1254.40;;;;;;5072790;28;20025;-79
2021/06/20 11:34:49;;;;;;;6.10;2.25;;;845.00;1203.20;;;;;;5072679;28;20025;-79
2021/06/20 11:37:17;;;;;;;2.75;2.38;;;845.10;1228.80;;;;;;5072802;28;20345;-79
2021/06/20 11:39:47;;;;;;;3.90;2.50;;;845.20;1203.20;;;;;;5072463;28;20058;-78
2021/06/20 11:42:23;;;;;;;3.95;2.70;;;845.00;1177.60;;;;;;5072597;28;20392;-78
2021/06/20 11:45:07;;;;;;;6.43;2.72;;;844.90;1228.80;;;;;;5071181;28;20093;-78
2021/06/20 11:47:37;;;;;;;5.15;2.50;;;845.10;1228.80;;;;;;5072535;28;20362;-76
2021/06/20 11:50:29;;;;;;;3.15;2.30;;;845.10;1203.20;;;;;;5072480;28;20150;-77
2021/06/20 11:53:21;;;;;;;5.78;2.50;;;845.20;1152.00;;;;;;5072419;28;20035;-77
2021/06/20 11:55:47;;;;;;;5.32;2.83;;;820.10;1152.00;;;;;;5070994;28;20039;-77
2021/06/20 11:58:15;;;;;;;6.72;2.58;;;844.90;1203.20;;;;;;5072303;28;20021;-77
2021/06/20 12:00:44;;;;;;;4.53;2.80;;;845.20;1203.20;;;;;;5072201;28;20027;-80
2021/06/20 12:03:18;;;;;;;3.55;2.42;;;820.10;1177.60;;;;;;5072131;28;20484;-76
2021/06/20 12:05:47;;;;;;;4.05;2.47;;;820.10;1228.80;;;;;;5072272;28;20029;-78
2021/06/20 12:08:13;;;;;;;3.05;2.15;;;844.90;1280.00;;;;;;5072223;28;20032;-78
2021/06/20 12:10:46;;;;;;;4.47;2.50;;;844.90;1254.40;;;;;;5072180;28;20031;-78
2021/06/20 12:13:13;;;;;;;3.70;2.53;;;845.10;1228.80;;;;;;5071920;28;20016;-78
2021/06/20 12:15:40;;;;;;;3.25;2.60;;;845.40;1203.20;;;;;;5071889;28;20056;-78
2021/06/20 12:18:11;;;;;;;5.15;2.90;;;845.00;1177.60;;;;;;5071949;28;20036;-77
2021/06/20 12:20:41;;;;;;;6.03;2.40;;;845.10;1177.60;;;;;;5071888;28;20060;-78
2021/06/20 12:23:09;;;;;;;2.90;2.17;;;845.10;1177.60;;;;;;5071790;28;20048;-78